createdAt,value
2017-07-12T00:01:43.238Z,77.60
2017-07-12T00:04:11.557Z,78.65
2017-07-12T00:06:40.296Z,79.03
2017-07-12T00:09:08.626Z,78.33
2017-07-12T00:11:36.938Z,77.90
2017-07-12T00:14:06.222Z,77.14
2017-07-12T00:16:34.533Z,77.58
2017-07-12T00:19:02.857Z,78.15
2017-07-12T00:21:31.723Z,78.80
2017-07-12T00:24:00.045Z,78.73
2017-07-12T00:26:28.380Z,78.19
2017-07-12T00:28:57.010Z,78.05
2017-07-12T00:31:25.333Z,77.64
2017-07-12T00:33:53.666Z,77.55
2017-07-12T00:36:22.282Z,77.95
2017-07-12T00:38:50.621Z,78.35
2017-07-12T00:41:19.001Z,78.75
2017-07-12T00:43:48.012Z,79.06
2017-07-12T00:46:16.335Z,78.45
2017-07-12T00:48:44.661Z,78.36
2017-07-12T00:51:13.335Z,78.06
2017-07-12T00:53:41.664Z,77.68
2017-07-12T00:56:09.988Z,77.07
2017-07-12T01:01:18.532Z,77.19
2017-07-12T01:03:46.858Z,77.80
2017-07-12T01:06:15.221Z,78.90
2017-07-12T01:08:43.859Z,78.94
2017-07-12T01:11:12.193Z,78.58
2017-07-12T01:13:40.525Z,78.73
2017-07-12T01:16:09.734Z,78.62
2017-07-12T01:18:38.034Z,78.21
2017-07-12T01:21:06.359Z,77.48
2017-07-12T01:23:35.111Z,78.09
2017-07-12T01:26:03.480Z,77.74
2017-07-12T01:28:31.844Z,77.68
2017-07-12T01:31:00.686Z,77.07
2017-07-12T01:33:29.047Z,76.85
2017-07-12T01:35:57.411Z,77.36
2017-07-12T01:38:26.341Z,77.75
2017-07-12T01:40:54.695Z,78.49
2017-07-12T01:43:23.041Z,78.24
2017-07-12T01:45:51.799Z,78.08
2017-07-12T01:48:20.137Z,78.49
2017-07-12T01:50:49.238Z,79.35
2017-07-12T01:53:18.023Z,78.49
2017-07-12T01:55:46.369Z,77.75
2017-07-12T01:58:14.714Z,77.43
2017-07-12T02:00:43.374Z,77.61
2017-07-12T02:03:11.708Z,77.34
2017-07-12T02:05:40.081Z,78.52
2017-07-12T02:08:09.269Z,79.11
2017-07-12T02:10:37.600Z,79.45
2017-07-12T02:13:05.925Z,79.14
2017-07-12T02:15:34.777Z,78.67
2017-07-12T02:18:03.975Z,78.33
2017-07-12T02:20:32.341Z,77.98
2017-07-12T02:23:01.110Z,78.23
2017-07-12T02:25:29.465Z,78.41
2017-07-12T02:27:57.806Z,78.33
2017-07-12T02:30:26.606Z,78.42
2017-07-12T02:32:54.966Z,79.25
2017-07-12T02:35:23.320Z,80.41
2017-07-12T02:37:52.865Z,80.68
2017-07-12T02:40:21.200Z,80.79
2017-07-12T02:45:21.810Z,79.09
2017-07-12T02:47:50.179Z,79.47
2017-07-12T02:50:18.565Z,79.71
2017-07-12T02:52:47.667Z,79.74
2017-07-12T02:55:16.023Z,80.27
2017-07-12T02:57:44.378Z,80.11
2017-07-12T03:00:13.986Z,79.90
2017-07-12T03:02:42.359Z,79.87
2017-07-12T03:05:11.513Z,80.03
2017-07-12T03:07:40.283Z,80.40
2017-07-12T03:10:08.629Z,79.81
2017-07-12T03:12:37.769Z,79.94
2017-07-12T03:15:06.918Z,80.45
2017-07-12T03:17:35.270Z,80.32
2017-07-12T03:20:03.625Z,80.52
2017-07-12T03:22:32.259Z,79.59
2017-07-12T03:25:01.398Z,78.69
2017-07-12T03:27:29.762Z,78.82
2017-07-12T03:29:58.668Z,78.73
2017-07-12T03:32:27.004Z,79.06
2017-07-12T03:34:55.351Z,79.09
2017-07-12T03:37:24.136Z,78.41
2017-07-12T03:39:55.213Z,79.18
2017-07-12T03:42:23.546Z,79.32
2017-07-12T03:44:52.228Z,81.24
2017-07-12T03:47:20.574Z,80.22
2017-07-12T03:49:49.681Z,79.84
2017-07-12T03:52:18.319Z,79.61
2017-07-12T03:54:46.665Z,79.50
2017-07-12T03:57:15.003Z,79.93
2017-07-12T03:59:44.313Z,80.86
2017-07-12T04:02:12.648Z,80.85
2017-07-12T04:04:40.991Z,80.62
2017-07-12T04:07:09.631Z,80.44
2017-07-12T04:09:37.975Z,80.70
2017-07-12T04:12:06.311Z,80.19
2017-07-12T04:14:34.974Z,80.82
2017-07-12T04:17:03.370Z,81.16
2017-07-12T04:19:31.743Z,79.98
2017-07-12T04:22:00.882Z,79.11
2017-07-12T04:24:29.218Z,79.15
2017-07-12T04:26:58.338Z,79.62
2017-07-12T04:29:27.122Z,79.84
2017-07-12T04:31:55.466Z,79.26
2017-07-12T04:34:23.819Z,79.52
2017-07-12T04:36:52.546Z,79.89
2017-07-12T04:39:20.927Z,78.84
2017-07-12T04:41:50.080Z,78.39
2017-07-12T04:44:19.049Z,79.12
2017-07-12T04:46:47.398Z,79.95
2017-07-12T04:49:16.504Z,79.73
2017-07-12T04:51:46.124Z,79.70
2017-07-12T04:54:14.470Z,79.89
2017-07-12T04:56:42.810Z,79.65
2017-07-12T04:59:11.563Z,79.63
2017-07-12T05:01:39.892Z,79.23
2017-07-12T05:04:08.248Z,78.48
2017-07-12T05:06:37.214Z,78.36
2017-07-12T05:09:05.562Z,77.81
2017-07-12T05:11:33.941Z,78.47
2017-07-12T05:14:02.596Z,78.77
2017-07-12T05:16:30.974Z,79.18
2017-07-12T05:18:59.323Z,78.82
2017-07-12T05:21:28.106Z,78.28
2017-07-12T05:23:56.432Z,77.30
2017-07-12T05:26:24.792Z,77.65
2017-07-12T05:28:53.968Z,77.66
2017-07-12T05:31:22.320Z,77.85
2017-07-12T05:33:50.665Z,77.75
2017-07-12T05:36:19.620Z,77.64
2017-07-12T05:38:47.967Z,78.23
2017-07-12T05:41:16.339Z,77.65
2017-07-12T05:43:44.986Z,76.60
2017-07-12T05:46:13.396Z,75.51
2017-07-12T05:48:41.763Z,76.19
2017-07-12T05:51:10.970Z,75.71
2017-07-12T05:53:39.318Z,75.89
2017-07-12T05:56:07.680Z,75.74
2017-07-12T05:58:36.562Z,75.85
2017-07-12T06:01:04.907Z,74.93
2017-07-12T06:03:33.262Z,74.96
2017-07-12T06:06:02.003Z,74.52
2017-07-12T06:08:30.344Z,75.45
2017-07-12T06:10:58.691Z,74.42
2017-07-12T06:13:28.012Z,74.66
2017-07-12T06:15:56.345Z,74.91
2017-07-12T06:18:24.679Z,73.78
2017-07-12T06:20:53.317Z,74.87
2017-07-12T06:23:21.677Z,74.89
2017-07-12T06:25:50.775Z,74.29
2017-07-12T06:28:20.391Z,74.18
2017-07-12T06:30:48.737Z,73.06
2017-07-12T06:33:17.100Z,72.32
2017-07-12T06:35:45.922Z,72.43
2017-07-12T06:38:15.064Z,73.33
2017-07-12T06:40:43.442Z,73.41
2017-07-12T06:43:12.312Z,72.73
2017-07-12T06:45:40.665Z,73.02
2017-07-12T06:48:09.781Z,73.64
2017-07-12T06:50:38.584Z,74.74
2017-07-12T06:53:06.919Z,75.43
2017-07-12T06:55:35.247Z,75.15
2017-07-12T06:58:04.229Z,75.11
2017-07-12T07:00:32.576Z,74.79
2017-07-12T07:03:00.919Z,74.59
2017-07-12T07:05:29.561Z,72.81
2017-07-12T07:07:58.688Z,72.43
2017-07-12T07:10:27.044Z,72.11
2017-07-12T07:12:55.669Z,72.25
2017-07-12T07:15:24.015Z,72.19
2017-07-12T07:17:52.364Z,73.15
2017-07-12T07:20:22.062Z,72.61
2017-07-12T07:22:50.443Z,72.87
2017-07-12T07:25:18.785Z,73.47
2017-07-12T07:27:47.659Z,74.11
2017-07-12T07:30:16.000Z,73.95
2017-07-12T07:32:45.124Z,74.58
2017-07-12T07:35:13.814Z,74.51
2017-07-12T07:37:42.200Z,74.67
2017-07-12T07:40:10.533Z,75.57
2017-07-12T07:42:39.559Z,76.04
2017-07-12T07:45:07.907Z,75.82
2017-07-12T07:47:36.256Z,75.99
2017-07-12T07:50:05.033Z,75.98
2017-07-12T07:52:33.408Z,77.10
2017-07-12T07:55:01.761Z,76.48
2017-07-12T07:57:30.524Z,76.52
2017-07-12T07:59:58.888Z,76.55
2017-07-12T08:02:27.283Z,76.15
2017-07-12T08:04:56.825Z,75.99
2017-07-12T08:07:25.180Z,74.62
2017-07-12T08:09:53.533Z,73.72
2017-07-12T08:12:22.401Z,73.10
2017-07-12T08:14:50.744Z,73.10
2017-07-12T08:17:19.112Z,73.75
2017-07-12T08:19:48.421Z,72.76
2017-07-12T08:22:16.764Z,74.68
2017-07-12T08:24:45.118Z,75.51
2017-07-12T08:27:14.413Z,76.14
2017-07-12T08:29:42.763Z,76.23
2017-07-12T08:32:11.114Z,75.53
2017-07-12T08:34:40.573Z,75.05
2017-07-12T08:37:08.906Z,76.12
2017-07-12T08:39:37.267Z,75.73
2017-07-12T08:42:06.201Z,75.96
2017-07-12T08:44:34.536Z,77.23
2017-07-12T08:47:02.923Z,76.60
2017-07-12T08:49:31.662Z,77.66
2017-07-12T08:52:00.001Z,77.09
2017-07-12T08:54:29.113Z,76.15
2017-07-12T08:56:58.723Z,75.25
2017-07-12T08:59:27.057Z,74.24
2017-07-12T09:01:55.398Z,73.38
2017-07-12T09:04:24.214Z,71.85
2017-07-12T09:06:52.557Z,72.23
2017-07-12T09:09:20.922Z,73.01
2017-07-12T09:11:49.845Z,72.52
2017-07-12T09:14:18.196Z,73.58
2017-07-12T09:16:46.551Z,73.74
2017-07-12T09:19:15.275Z,74.93
2017-07-12T09:21:43.747Z,74.48
2017-07-12T09:24:12.153Z,74.03
2017-07-12T09:34:07.037Z,71.84
2017-07-12T09:36:35.383Z,71.03
2017-07-12T09:39:03.866Z,70.20
2017-07-12T09:41:32.754Z,69.55
2017-07-12T09:44:01.088Z,68.93
2017-07-12T09:46:29.444Z,70.30
2017-07-12T09:48:58.082Z,70.60
2017-07-12T09:51:26.417Z,70.53
2017-07-12T09:53:54.758Z,69.28
2017-07-12T09:56:23.722Z,69.73
2017-07-12T09:58:52.052Z,68.99
2017-07-12T10:01:20.403Z,67.56
2017-07-12T10:03:49.375Z,68.95
2017-07-12T10:06:17.701Z,69.52
2017-07-12T10:08:46.040Z,69.62
2017-07-12T10:11:14.730Z,70.02
2017-07-12T10:13:43.105Z,70.36
2017-07-12T10:16:11.461Z,71.57
2017-07-12T10:18:40.454Z,71.72
2017-07-12T10:21:08.801Z,70.52
2017-07-12T10:23:37.271Z,71.33
2017-07-12T10:26:05.945Z,70.16
2017-07-12T10:28:34.446Z,70.30
2017-07-12T10:31:02.821Z,70.79
2017-07-12T10:33:31.773Z,70.62
2017-07-12T10:36:00.152Z,70.87
2017-07-12T10:38:28.529Z,71.28
2017-07-12T10:40:57.402Z,71.33
2017-07-12T10:43:25.803Z,71.13
2017-07-12T10:45:54.139Z,70.67
2017-07-12T10:48:23.101Z,70.40
2017-07-12T10:50:51.450Z,71.41
2017-07-12T10:53:19.791Z,70.04
2017-07-12T10:55:48.442Z,69.18
2017-07-12T10:58:16.850Z,69.32
2017-07-12T11:00:45.232Z,69.35
2017-07-12T11:03:14.104Z,70.24
2017-07-12T11:05:42.466Z,70.50
2017-07-12T11:08:10.804Z,70.04
2017-07-12T11:10:40.278Z,69.31
2017-07-12T11:13:08.647Z,69.41
2017-07-12T11:15:37.026Z,69.38
2017-07-12T11:18:05.690Z,69.01
2017-07-12T11:20:34.021Z,69.38
2017-07-12T11:23:03.200Z,68.59
2017-07-12T11:25:32.070Z,68.60
2017-07-12T11:28:00.422Z,69.15
2017-07-12T11:30:28.768Z,68.20
2017-07-12T11:32:57.574Z,68.48
2017-07-12T11:35:25.978Z,69.58
2017-07-12T11:37:54.319Z,66.81
2017-07-12T11:40:22.934Z,66.48
2017-07-12T11:42:51.321Z,66.79
2017-07-12T11:45:19.680Z,65.93
2017-07-12T11:47:48.414Z,64.39
2017-07-12T11:50:16.777Z,63.76
2017-07-12T11:52:45.154Z,63.17
2017-07-12T11:55:13.817Z,63.19
2017-07-12T11:57:42.158Z,63.30
2017-07-12T12:00:10.510Z,63.25
2017-07-12T12:02:39.407Z,64.00
2017-07-12T12:05:07.740Z,64.13
2017-07-12T12:07:36.100Z,62.85
2017-07-12T12:10:05.094Z,63.69
2017-07-12T12:12:34.201Z,64.37
2017-07-12T12:15:03.307Z,64.93
2017-07-12T12:17:32.091Z,65.25
2017-07-12T12:20:00.430Z,64.43
2017-07-12T12:22:28.769Z,65.32
2017-07-12T12:24:57.736Z,66.42
2017-07-12T12:27:26.089Z,65.29
2017-07-12T12:29:54.447Z,66.84
2017-07-12T12:32:23.390Z,65.75
2017-07-12T12:34:51.757Z,64.97
2017-07-12T12:37:20.893Z,64.94
2017-07-12T12:39:49.517Z,64.99
2017-07-12T12:42:17.874Z,64.49
2017-07-12T12:44:46.205Z,63.87
2017-07-12T12:47:14.893Z,63.38
2017-07-12T12:49:43.218Z,63.34
2017-07-12T12:52:11.588Z,64.22
2017-07-12T12:54:40.654Z,65.46
2017-07-12T12:57:08.999Z,65.33
2017-07-12T12:59:37.350Z,64.28
2017-07-12T13:02:06.216Z,65.00
2017-07-12T13:04:40.147Z,66.05
2017-07-12T13:07:09.111Z,66.76
2017-07-12T13:09:37.435Z,65.77
2017-07-12T13:12:05.800Z,66.11
2017-07-12T13:14:34.643Z,65.17
2017-07-12T13:17:03.819Z,64.66
2017-07-12T13:19:32.076Z,64.73
2017-07-12T13:22:00.703Z,63.50
2017-07-12T13:24:29.079Z,63.36
2017-07-12T13:26:57.543Z,63.97
2017-07-12T13:29:26.479Z,64.46
2017-07-12T13:31:54.826Z,65.42
2017-07-12T13:34:23.943Z,65.65
2017-07-12T13:36:52.817Z,65.21
2017-07-12T13:39:21.935Z,65.55
2017-07-12T13:41:50.268Z,65.02
2017-07-12T13:44:18.998Z,64.88
2017-07-12T13:46:47.327Z,65.69
2017-07-12T13:49:15.662Z,66.61
2017-07-12T13:51:44.444Z,66.88
2017-07-12T13:54:12.795Z,65.79
2017-07-12T13:56:41.918Z,66.44
2017-07-12T13:59:11.110Z,65.72
2017-07-12T14:01:39.439Z,64.53
2017-07-12T14:04:07.800Z,65.37
2017-07-12T14:06:36.559Z,65.54
2017-07-12T14:09:04.912Z,65.28
2017-07-12T14:11:34.011Z,63.91
2017-07-12T14:14:03.442Z,64.08
2017-07-12T14:16:31.800Z,62.95
2017-07-12T14:19:00.956Z,62.11
2017-07-12T14:21:29.678Z,62.43
2017-07-12T14:23:58.035Z,63.18
2017-07-12T14:26:26.351Z,64.25
2017-07-12T14:28:55.567Z,63.64
2017-07-12T14:31:23.908Z,63.38
2017-07-12T14:33:52.336Z,63.53
2017-07-12T14:36:20.927Z,63.85
2017-07-12T14:38:49.257Z,64.15
2017-07-12T14:41:17.585Z,65.48
2017-07-12T14:43:46.632Z,66.21
2017-07-12T14:46:14.963Z,66.87
2017-07-12T14:48:43.298Z,66.97
2017-07-12T14:51:12.677Z,67.39
2017-07-12T14:53:41.048Z,67.46
2017-07-12T14:56:09.412Z,67.65
2017-07-12T14:58:38.349Z,67.93
2017-07-12T15:01:06.706Z,67.51
2017-07-12T15:03:35.045Z,67.76
2017-07-12T15:06:03.770Z,67.85
2017-07-12T15:08:32.097Z,68.60
2017-07-12T15:11:00.442Z,68.68
2017-07-12T15:13:29.859Z,70.17
2017-07-12T15:15:58.203Z,71.09
2017-07-12T15:18:26.546Z,71.55
2017-07-12T15:20:55.177Z,71.81
2017-07-12T15:23:23.520Z,72.08
2017-07-12T15:25:51.860Z,71.25
2017-07-12T15:28:20.638Z,71.66
2017-07-12T15:30:49.748Z,70.86
2017-07-12T15:33:18.097Z,70.42
2017-07-12T15:35:46.812Z,72.12
2017-07-12T15:38:15.129Z,72.14
2017-07-12T15:40:43.481Z,72.38
2017-07-12T15:43:12.201Z,71.92
2017-07-12T15:45:40.533Z,71.88
2017-07-12T15:48:08.878Z,71.89
2017-07-12T15:50:38.127Z,72.41
2017-07-12T15:53:06.455Z,73.50
2017-07-12T15:55:34.799Z,73.55
2017-07-12T15:58:03.559Z,71.84
2017-07-12T16:00:31.902Z,71.55
2017-07-12T16:03:00.256Z,71.57
2017-07-12T16:05:29.170Z,71.36
2017-07-12T16:07:57.506Z,71.20
2017-07-12T16:10:25.844Z,71.47
2017-07-12T16:12:55.591Z,70.41
2017-07-12T16:15:23.933Z,71.29
2017-07-12T16:17:52.274Z,70.05
2017-07-12T16:20:21.096Z,70.42
2017-07-12T16:22:49.441Z,70.37
2017-07-12T16:25:17.789Z,69.64
2017-07-12T16:27:46.555Z,69.79
2017-07-12T16:30:14.890Z,69.95
2017-07-12T16:32:43.216Z,71.02
2017-07-12T16:35:12.849Z,71.10
2017-07-12T16:37:41.259Z,70.59
2017-07-12T16:40:09.542Z,70.98
2017-07-12T16:42:38.218Z,70.31
2017-07-12T16:45:06.567Z,69.62
2017-07-12T16:47:34.922Z,69.74
2017-07-12T16:50:03.561Z,69.73
2017-07-12T16:52:32.006Z,70.46
2017-07-12T16:55:00.346Z,70.19
2017-07-12T16:57:29.401Z,70.16
2017-07-12T16:59:57.749Z,70.01
2017-07-12T17:02:26.080Z,69.78
2017-07-12T17:04:54.813Z,69.85
2017-07-12T17:07:23.153Z,70.28
2017-07-12T17:09:51.579Z,69.83
2017-07-12T17:12:20.150Z,70.17
2017-07-12T17:14:49.245Z,69.38
2017-07-12T17:17:18.342Z,70.23
2017-07-12T17:19:47.965Z,70.97
2017-07-12T17:22:16.292Z,70.52
2017-07-12T17:24:44.663Z,70.10
2017-07-12T17:27:13.410Z,70.00
2017-07-12T17:29:41.740Z,70.11
2017-07-12T17:32:10.078Z,69.83
2017-07-12T17:34:38.793Z,69.03
2017-07-12T17:37:07.130Z,69.19
2017-07-12T17:39:35.514Z,69.65
2017-07-12T17:42:04.293Z,70.44
2017-07-12T17:44:32.624Z,71.31
2017-07-12T17:47:00.963Z,71.44
2017-07-12T17:49:29.636Z,71.25
2017-07-12T17:51:58.012Z,70.25
2017-07-12T17:54:26.354Z,69.52
2017-07-12T17:56:55.187Z,68.58
2017-07-12T17:59:23.538Z,68.42
2017-07-12T18:01:51.878Z,68.01
2017-07-12T18:04:20.623Z,67.43
2017-07-12T18:06:48.991Z,66.91
2017-07-12T18:09:18.128Z,67.05
2017-07-12T18:11:46.910Z,66.16
2017-07-12T18:14:15.256Z,66.23
2017-07-12T18:16:44.379Z,66.66
2017-07-12T18:19:13.161Z,66.63
2017-07-12T18:21:41.499Z,66.64
2017-07-12T18:24:09.840Z,66.75
2017-07-12T18:26:38.819Z,66.39
2017-07-12T18:29:07.170Z,66.35
2017-07-12T18:31:36.659Z,65.93
2017-07-12T18:34:05.496Z,66.27
2017-07-12T18:36:33.833Z,66.84
2017-07-12T18:39:02.163Z,66.33
2017-07-12T18:41:30.933Z,66.17
2017-07-12T18:43:59.277Z,66.57
2017-07-12T18:46:27.642Z,66.81
2017-07-12T18:48:56.886Z,67.69
2017-07-12T18:51:26.013Z,67.88
2017-07-12T18:53:54.353Z,67.68
2017-07-12T18:56:23.254Z,67.76
2017-07-12T18:58:51.591Z,67.48
2017-07-12T19:01:19.934Z,67.44
2017-07-12T19:03:48.538Z,68.13
2017-07-12T19:06:17.624Z,66.77
2017-07-12T19:08:46.012Z,67.01
2017-07-12T19:11:14.971Z,67.27
2017-07-12T19:13:43.319Z,65.91
2017-07-12T19:16:11.655Z,65.89
2017-07-12T19:18:40.406Z,64.32
2017-07-12T19:21:08.759Z,64.09
2017-07-12T19:23:37.102Z,62.98
2017-07-12T19:26:05.761Z,62.76
2017-07-12T19:28:34.097Z,62.75
2017-07-12T19:31:02.447Z,63.04
2017-07-12T19:33:31.768Z,63.05
2017-07-12T19:36:00.116Z,62.38
2017-07-12T19:38:28.471Z,62.75
2017-07-12T19:40:57.137Z,62.30
2017-07-12T19:43:25.485Z,62.57
2017-07-12T19:45:53.820Z,62.74
2017-07-12T19:48:22.481Z,63.14
2017-07-12T19:50:51.578Z,63.82
2017-07-12T19:53:20.699Z,63.62
2017-07-12T19:55:49.683Z,64.64
2017-07-12T19:58:18.032Z,64.59
2017-07-12T20:00:46.358Z,64.28
2017-07-12T20:03:15.168Z,64.83
2017-07-12T20:05:43.513Z,64.96
2017-07-12T20:08:11.873Z,65.13
2017-07-12T20:10:40.793Z,65.18
2017-07-12T20:13:09.191Z,65.85
2017-07-12T20:15:37.523Z,65.13
2017-07-12T20:18:06.777Z,65.25
2017-07-12T20:20:35.098Z,65.43
2017-07-12T20:23:03.454Z,66.29
2017-07-12T20:25:32.061Z,65.93
2017-07-12T20:28:00.412Z,65.89
2017-07-12T20:30:28.749Z,66.20
2017-07-12T20:32:57.542Z,66.95
2017-07-12T20:35:25.892Z,66.63
2017-07-12T20:37:54.240Z,66.48
2017-07-12T20:40:22.934Z,67.37
2017-07-12T20:42:51.287Z,66.55
2017-07-12T20:45:19.678Z,67.22
2017-07-12T20:47:48.406Z,66.76
2017-07-12T20:50:17.546Z,67.10
2017-07-12T20:52:45.897Z,66.43
2017-07-12T20:55:14.540Z,66.76
2017-07-12T20:57:42.894Z,66.91
2017-07-12T21:00:11.251Z,66.91
2017-07-12T21:02:40.064Z,66.91
2017-07-12T21:05:08.406Z,67.36
2017-07-12T21:07:36.746Z,66.99
2017-07-12T21:10:05.604Z,66.78
2017-07-12T21:12:33.957Z,66.76
2017-07-12T21:15:02.306Z,67.28
2017-07-12T21:17:30.969Z,66.96
2017-07-12T21:19:59.419Z,67.60
2017-07-12T21:22:27.864Z,67.27
2017-07-12T21:24:57.674Z,67.99
2017-07-12T21:27:26.046Z,68.44
2017-07-12T21:29:54.398Z,68.41
2017-07-12T21:32:23.026Z,67.90
2017-07-12T21:34:51.367Z,67.35
2017-07-12T21:37:19.698Z,67.53
2017-07-12T21:39:48.582Z,67.80
2017-07-12T21:42:16.922Z,68.12
2017-07-12T21:44:45.276Z,67.61
2017-07-12T21:47:14.049Z,67.73
2017-07-12T21:49:42.374Z,67.30
2017-07-12T21:52:10.714Z,67.67
2017-07-12T21:55:02.602Z,67.26
2017-07-12T21:57:54.130Z,66.93
2017-07-12T22:00:46.268Z,67.20
2017-07-12T22:03:37.648Z,67.26
2017-07-12T22:06:30.126Z,67.86
2017-07-12T22:09:21.882Z,67.64
2017-07-12T22:12:13.589Z,68.89
2017-07-12T22:15:05.217Z,67.20
2017-07-12T22:17:57.078Z,67.16
2017-07-12T22:20:48.531Z,67.35
2017-07-12T22:23:40.740Z,67.37
2017-07-12T22:26:32.404Z,67.36
2017-07-12T22:29:24.372Z,67.26
2017-07-12T22:32:15.917Z,67.98
2017-07-12T22:35:07.776Z,67.34
2017-07-12T22:37:41.574Z,67.84
2017-07-12T22:40:15.675Z,67.78
2017-07-12T22:42:49.589Z,68.41
2017-07-12T22:45:18.256Z,68.51
2017-07-12T22:47:46.603Z,69.07
2017-07-12T22:50:14.946Z,69.35
2017-07-12T22:52:43.765Z,69.23
2017-07-12T22:55:12.110Z,69.54
2017-07-12T22:57:40.463Z,70.24
2017-07-12T23:00:09.298Z,71.23
2017-07-12T23:02:37.637Z,71.58
2017-07-12T23:05:05.970Z,71.62
2017-07-12T23:07:34.857Z,70.87
2017-07-12T23:10:03.179Z,70.54
2017-07-12T23:12:31.515Z,71.34
2017-07-12T23:15:00.158Z,70.74
2017-07-12T23:17:28.499Z,71.09
2017-07-12T23:19:56.826Z,71.10
2017-07-12T23:22:25.761Z,71.24
2017-07-12T23:24:54.119Z,70.56
2017-07-12T23:27:23.210Z,70.23
2017-07-12T23:29:52.015Z,69.91
2017-07-12T23:32:20.363Z,69.84
2017-07-12T23:34:48.714Z,69.69
2017-07-12T23:37:17.403Z,69.90
2017-07-12T23:39:45.725Z,71.01
2017-07-12T23:42:14.064Z,71.38
2017-07-12T23:44:42.930Z,71.57
2017-07-12T23:47:11.268Z,71.45
2017-07-12T23:49:39.609Z,71.25
2017-07-12T23:52:08.282Z,71.11
2017-07-12T23:54:36.643Z,71.19
2017-07-12T23:57:04.982Z,71.56
2017-07-12T23:59:33.607Z,71.64
